Time;durP1;ratioP1;P1;durP2;ratioP2;P2;SDS_P1;SDS_P2;PMS_P1;PMS_P2;Temp;Humidity;BMP_temperature;BMP_pressure;BME280_temperature;BME280_humidity;BME280_pressure;Samples;Min_cycle;Max_cycle;Signal;HPM_P1;HPM_P2
2023/07/01 00:02:07;;;;;;;4.80;2.63;;;19.40;99.20;;;;;;5033894;28;20208;-78
2023/07/01 00:04:36;;;;;;;2.92;2.42;;;19.40;99.20;;;;;;5011929;28;20229;-79
2023/07/01 00:07:04;;;;;;;4.72;2.78;;;19.40;99.30;;;;;;5010913;28;20203;-79
2023/07/01 00:09:32;;;;;;;5.22;2.88;;;19.40;99.00;;;;;;5036997;28;20195;-79
2023/07/01 00:12:00;;;;;;;4.28;2.60;;;19.40;99.50;;;;;;5043875;28;20201;-79
2023/07/01 00:14:27;;;;;;;3.17;2.88;;;19.40;99.20;;;;;;5018404;28;20199;-78
2023/07/01 00:16:55;;;;;;;3.78;2.67;;;19.40;99.20;;;;;;5009383;28;20214;-78
2023/07/01 00:19:23;;;;;;;7.68;3.15;;;19.30;99.30;;;;;;5027999;28;20306;-78
2023/07/01 00:21:50;;;;;;;2.70;2.40;;;19.30;99.40;;;;;;5015628;28;20206;-78
2023/07/01 00:24:17;;;;;;;3.28;2.75;;;19.30;99.30;;;;;;5030676;28;20202;-78
2023/07/01 00:26:49;;;;;;;3.40;2.78;;;19.30;99.10;;;;;;5035299;28;20199;-78
2023/07/01 00:29:17;;;;;;;4.07;2.95;;;19.30;99.00;;;;;;5030493;28;20198;-78
2023/07/01 00:31:44;;;;;;;2.95;2.55;;;19.40;99.00;;;;;;5015610;28;20214;-78
2023/07/01 00:34:12;;;;;;;4.18;2.42;;;19.30;99.10;;;;;;5005995;28;20226;-78
2023/07/01 00:36:39;;;;;;;4.57;2.65;;;19.40;99.40;;;;;;5032034;28;20214;-79
2023/07/01 00:39:07;;;;;;;4.50;2.63;;;19.30;99.30;;;;;;5032010;28;20211;-78
2023/07/01 00:41:34;;;;;;;7.22;2.90;;;19.30;99.20;;;;;;5014724;28;20198;-78
2023/07/01 00:44:04;;;;;;;2.97;2.42;;;19.30;99.00;;;;;;5028052;28;20211;-78
2023/07/01 00:46:32;;;;;;;3.30;2.83;;;19.30;98.90;;;;;;5012892;28;20192;-78
2023/07/01 00:49:01;;;;;;;4.30;2.60;;;19.30;98.90;;;;;;5015054;28;20202;-78
2023/07/01 00:51:28;;;;;;;3.90;2.95;;;19.30;98.80;;;;;;5014575;28;20206;-77
2023/07/01 00:53:56;;;;;;;4.15;2.70;;;19.30;98.90;;;;;;5028698;28;20230;-78
2023/07/01 00:56:23;;;;;;;3.28;2.97;;;19.20;98.90;;;;;;5034428;28;20202;-78
2023/07/01 00:58:51;;;;;;;2.78;2.58;;;19.30;98.80;;;;;;5032225;28;20199;-78
2023/07/01 01:01:34;;;;;;;3.65;2.58;;;19.30;99.10;;;;;;5026848;28;20199;-78
2023/07/01 01:04:11;;;;;;;3.35;2.67;;;19.20;99.10;;;;;;5020257;28;20225;-79
2023/07/01 01:06:46;;;;;;;3.97;2.90;;;19.20;99.20;;;;;;5013230;28;20199;-79
2023/07/01 01:09:22;;;;;;;2.95;2.65;;;19.20;99.00;;;;;;5017440;28;20853;-79
2023/07/01 01:11:52;;;;;;;3.50;2.83;;;19.20;99.10;;;;;;5004445;28;20202;-78
2023/07/01 01:14:20;;;;;;;5.80;2.75;;;19.20;99.00;;;;;;5028171;28;20210;-78
2023/07/01 01:16:50;;;;;;;3.30;3.00;;;19.20;99.10;;;;;;5027878;28;20211;-79
2023/07/01 01:19:26;;;;;;;3.10;2.72;;;19.20;99.20;;;;;;5024397;28;20218;-79
2023/07/01 01:22:09;;;;;;;4.10;2.72;;;19.20;99.20;;;;;;5029639;28;20199;-78
2023/07/01 01:24:41;;;;;;;3.38;2.80;;;19.30;99.30;;;;;;5017700;28;20209;-79
2023/07/01 01:27:11;;;;;;;4.97;2.50;;;19.20;99.60;;;;;;5019500;28;21894;-78
2023/07/01 01:29:40;;;;;;;4.63;2.50;;;19.20;99.40;;;;;;5025278;28;20194;-78
2023/07/01 01:32:08;;;;;;;3.17;2.80;;;19.20;99.60;;;;;;5013385;28;20194;-78
2023/07/01 01:34:36;;;;;;;3.80;2.60;;;19.20;99.50;;;;;;5029342;28;20653;-79
2023/07/01 01:37:07;;;;;;;4.03;2.72;;;19.10;99.80;;;;;;5019169;28;20214;-78
2023/07/01 01:39:47;;;;;;;4.10;2.63;;;19.10;99.80;;;;;;5032545;28;20221;-78
2023/07/01 01:42:21;;;;;;;2.78;2.50;;;19.20;99.90;;;;;;5013516;28;20226;-78
2023/07/01 01:44:54;;;;;;;3.28;2.60;;;19.20;99.90;;;;;;5029280;28;20199;-78
2023/07/01 01:47:24;;;;;;;3.72;2.65;;;19.10;99.90;;;;;;5029558;28;20195;-78
2023/07/01 01:49:54;;;;;;;4.15;2.53;;;19.10;99.90;;;;;;5017628;28;20198;-79
2023/07/01 01:52:23;;;;;;;2.40;2.20;;;19.10;99.90;;;;;;5038089;28;20215;-79
2023/07/01 01:54:55;;;;;;;3.53;2.80;;;19.10;99.90;;;;;;5024472;28;20202;-79
2023/07/01 01:57:24;;;;;;;4.75;2.70;;;19.10;99.90;;;;;;5013902;28;20208;-80
2023/07/01 01:59:54;;;;;;;6.85;2.83;;;19.00;99.90;;;;;;5035966;28;20207;-79
2023/07/01 02:02:21;;;;;;;6.47;2.88;;;19.10;99.90;;;;;;5055412;28;20226;-78
2023/07/01 02:04:49;;;;;;;4.78;3.08;;;19.10;99.90;;;;;;5036342;28;20209;-80
2023/07/01 02:07:16;;;;;;;3.35;2.80;;;19.00;99.90;;;;;;5013069;28;20203;-79
2023/07/01 02:09:44;;;;;;;4.00;2.75;;;19.00;99.90;;;;;;5018038;28;20199;-80
2023/07/01 02:12:11;;;;;;;2.97;2.63;;;19.00;99.90;;;;;;5035750;28;20233;-78
2023/07/01 02:14:39;;;;;;;3.10;2.80;;;19.00;99.90;;;;;;5012028;28;20195;-79
2023/07/01 02:17:08;;;;;;;2.80;2.53;;;19.00;99.90;;;;;;5032985;28;20213;-80
2023/07/01 02:19:35;;;;;;;3.13;2.83;;;19.00;99.90;;;;;;5014178;28;20569;-80
2023/07/01 02:22:03;;;;;;;3.88;3.03;;;19.00;99.90;;;;;;5035854;28;20198;-80
2023/07/01 02:24:30;;;;;;;4.53;2.70;;;19.00;99.90;;;;;;5036506;28;20199;-79
2023/07/01 02:26:59;;;;;;;5.00;2.97;;;19.00;99.90;;;;;;5018910;28;20203;-80
2023/07/01 02:29:26;;;;;;;5.32;2.75;;;19.00;99.90;;;;;;5026288;28;20191;-79
2023/07/01 02:31:56;;;;;;;5.00;2.75;;;18.90;99.90;;;;;;5023385;28;20218;-79
2023/07/01 02:34:27;;;;;;;5.03;2.65;;;19.00;99.90;;;;;;5030446;28;20198;-79
2023/07/01 02:36:55;;;;;;;3.10;2.70;;;18.90;99.90;;;;;;5020896;28;20200;-80
2023/07/01 02:39:23;;;;;;;4.05;2.90;;;19.00;99.90;;;;;;5032759;28;20226;-80
2023/07/01 02:41:51;;;;;;;4.65;2.63;;;18.90;99.90;;;;;;5030876;28;20203;-80
2023/07/01 02:44:18;;;;;;;2.80;2.58;;;18.90;99.90;;;;;;5026549;28;20195;-80
2023/07/01 02:46:47;;;;;;;4.97;2.80;;;19.00;99.90;;;;;;5033001;28;20206;-80
2023/07/01 02:49:15;;;;;;;4.28;2.97;;;19.00;99.90;;;;;;5033902;28;20203;-79
2023/07/01 02:51:44;;;;;;;4.78;2.80;;;19.00;99.90;;;;;;5034578;28;20191;-79
2023/07/01 02:56:41;;;;;;;2.80;2.60;;;19.00;99.90;;;;;;4963635;28;20232;-79
2023/07/01 02:59:08;;;;;;;5.07;2.53;;;19.00;99.90;;;;;;4963651;28;20212;-78
2023/07/01 03:01:37;;;;;;;2.90;2.60;;;19.00;99.90;;;;;;4961146;28;20204;-77
2023/07/01 03:04:07;;;;;;;3.08;2.78;;;19.00;99.90;;;;;;4967658;28;20205;-77
2023/07/01 03:06:35;;;;;;;3.55;2.63;;;19.00;99.90;;;;;;4951974;28;20225;-78
2023/07/01 03:09:07;;;;;;;3.00;2.30;;;19.00;99.90;;;;;;4967624;28;20205;-77
2023/07/01 03:11:35;;;;;;;4.40;3.05;;;19.00;99.90;;;;;;4986347;28;20196;-78
2023/07/01 03:14:03;;;;;;;3.08;2.65;;;19.00;99.90;;;;;;4963706;28;20212;-77
2023/07/01 03:16:30;;;;;;;3.15;1.98;;;19.00;99.90;;;;;;4970163;28;20236;-78
2023/07/01 03:18:58;;;;;;;3.35;2.30;;;19.00;99.90;;;;;;4975869;28;20574;-78
2023/07/01 03:21:26;;;;;;;3.90;2.83;;;19.00;99.90;;;;;;4975140;28;20224;-78
2023/07/01 03:23:53;;;;;;;2.97;2.40;;;19.00;99.90;;;;;;4957774;28;20702;-78
2023/07/01 03:26:23;;;;;;;4.40;2.53;;;19.00;99.90;;;;;;4967134;28;20224;-78
2023/07/01 03:28:52;;;;;;;2.60;2.38;;;19.10;99.90;;;;;;4974709;28;20201;-78
2023/07/01 03:31:19;;;;;;;3.40;2.58;;;19.10;99.90;;;;;;4958534;28;20197;-78
2023/07/01 03:33:47;;;;;;;3.70;2.70;;;19.00;99.90;;;;;;4961082;28;20197;-78
2023/07/01 03:36:14;;;;;;;4.75;2.33;;;19.00;99.90;;;;;;4949775;28;20228;-78
2023/07/01 03:38:42;;;;;;;4.28;2.20;;;19.10;99.90;;;;;;4982317;28;20201;-78
2023/07/01 03:41:09;;;;;;;4.05;2.58;;;19.10;99.90;;;;;;4965108;28;20217;-77
2023/07/01 03:43:38;;;;;;;6.07;2.83;;;19.00;99.90;;;;;;4984622;28;20204;-78
2023/07/01 03:46:05;;;;;;;3.60;2.65;;;19.00;99.90;;;;;;4952203;28;20225;-78
2023/07/01 03:48:34;;;;;;;2.95;2.58;;;19.00;99.90;;;;;;4956261;28;20664;-77
2023/07/01 03:51:01;;;;;;;5.25;2.90;;;19.00;99.90;;;;;;4971131;28;20200;-78
2023/07/01 03:53:28;;;;;;;5.72;2.20;;;19.00;99.90;;;;;;4972052;28;20212;-78
2023/07/01 03:55:56;;;;;;;3.17;2.42;;;19.00;99.90;;;;;;4948716;28;20232;-78
2023/07/01 03:58:24;;;;;;;8.43;2.78;;;19.10;99.90;;;;;;4951574;28;20201;-78
2023/07/01 04:00:53;;;;;;;4.93;2.92;;;19.10;99.90;;;;;;4959260;28;20233;-78
2023/07/01 04:03:43;;;;;;;3.58;2.55;;;19.10;99.90;;;;;;4949031;28;20198;-77
2023/07/01 04:06:11;;;;;;;4.97;2.75;;;19.00;99.90;;;;;;4961528;28;20220;-78
2023/07/01 04:08:38;;;;;;;3.72;2.80;;;19.10;99.90;;;;;;4972657;28;20699;-78
2023/07/01 04:11:06;;;;;;;4.03;2.60;;;19.10;99.90;;;;;;4963596;28;20204;-78
2023/07/01 04:13:33;;;;;;;3.70;2.78;;;19.10;99.90;;;;;;4955054;28;20200;-78
2023/07/01 04:16:02;;;;;;;3.78;2.40;;;19.00;99.90;;;;;;4952147;28;20575;-78
2023/07/01 04:18:29;;;;;;;2.80;2.42;;;19.00;99.90;;;;;;4988933;28;20189;-78
2023/07/01 04:20:57;;;;;;;4.68;3.10;;;19.00;99.90;;;;;;4955233;28;20225;-78
2023/07/01 04:23:52;;;;;;;3.00;2.45;;;19.10;99.90;;;;;;4969067;28;20192;-77
2023/07/01 04:26:19;;;;;;;5.10;3.58;;;19.10;99.90;;;;;;4948392;28;20224;-78
2023/07/01 04:28:47;;;;;;;7.68;4.70;;;19.00;99.90;;;;;;4972982;28;20208;-78
2023/07/01 04:31:15;;;;;;;3.85;3.47;;;19.00;99.90;;;;;;4958034;28;20200;-78
2023/07/01 04:33:43;;;;;;;4.28;3.05;;;19.00;99.90;;;;;;4954468;28;20197;-78
2023/07/01 04:36:10;;;;;;;3.85;2.97;;;18.90;99.90;;;;;;4966247;28;20234;-78
2023/07/01 04:38:38;;;;;;;2.78;2.40;;;18.90;99.90;;;;;;4975729;28;20651;-78
2023/07/01 04:41:06;;;;;;;3.80;2.40;;;18.90;99.90;;;;;;4961846;28;20220;-78
2023/07/01 04:43:33;;;;;;;7.03;2.42;;;18.90;99.90;;;;;;4965582;28;20236;-78
2023/07/01 04:46:00;;;;;;;4.50;2.80;;;18.90;99.90;;;;;;4950743;28;20235;-78
2023/07/01 04:48:29;;;;;;;3.90;2.60;;;18.90;99.90;;;;;;4972533;28;20204;-78
2023/07/01 04:50:57;;;;;;;3.90;2.58;;;18.90;99.90;;;;;;4960018;28;20659;-78
2023/07/01 04:53:24;;;;;;;4.00;2.88;;;18.90;99.90;;;;;;4965294;28;20212;-79
2023/07/01 04:55:52;;;;;;;4.88;2.63;;;19.00;99.90;;;;;;4921086;28;1094255;-78
2023/07/01 04:58:19;;;;;;;3.65;2.75;;;19.00;99.90;;;;;;4948664;28;20205;-78
2023/07/01 05:00:46;;;;;;;4.18;2.60;;;18.90;99.90;;;;;;4954949;28;21980;-78
2023/07/01 05:03:24;;;;;;;3.83;2.75;;;19.00;99.90;;;;;;4960618;28;20216;-78
2023/07/01 05:05:53;;;;;;;2.65;2.30;;;19.00;99.90;;;;;;4971739;28;20225;-79
2023/07/01 05:08:24;;;;;;;4.25;3.00;;;19.00;99.90;;;;;;4953198;28;20220;-79
2023/07/01 05:10:51;;;;;;;4.25;2.60;;;19.10;99.90;;;;;;4960334;28;20193;-79
2023/07/01 05:13:19;;;;;;;5.22;2.63;;;19.10;99.90;;;;;;4964818;28;20213;-79
2023/07/01 05:15:46;;;;;;;3.40;2.67;;;19.00;99.90;;;;;;4949727;28;20231;-78
2023/07/01 05:18:14;;;;;;;3.40;2.65;;;19.10;99.90;;;;;;4954656;28;20209;-79
2023/07/01 05:20:43;;;;;;;4.45;2.95;;;19.10;99.90;;;;;;4970114;28;20216;-78
2023/07/01 05:23:12;;;;;;;3.33;2.25;;;19.10;99.90;;;;;;4967778;28;20204;-79
2023/07/01 05:25:39;;;;;;;4.18;2.70;;;19.20;99.90;;;;;;4953339;28;20228;-79
2023/07/01 05:28:07;;;;;;;3.65;2.55;;;19.10;99.90;;;;;;4972449;28;20219;-78
2023/07/01 05:30:34;;;;;;;4.40;2.50;;;19.10;99.90;;;;;;4972922;28;20228;-78
2023/07/01 05:33:02;;;;;;;3.50;2.80;;;19.10;99.90;;;;;;4968245;28;20208;-79
2023/07/01 05:35:29;;;;;;;4.38;2.70;;;19.20;99.90;;;;;;4958017;28;20244;-78
2023/07/01 05:38:08;;;;;;;5.97;2.65;;;19.10;99.90;;;;;;4975923;28;20201;-78
2023/07/01 05:40:37;;;;;;;4.45;2.47;;;19.20;99.90;;;;;;4959487;28;20212;-78
2023/07/01 05:43:05;;;;;;;3.58;2.45;;;19.30;99.90;;;;;;4956989;28;20216;-78
2023/07/01 05:45:32;;;;;;;4.15;2.20;;;19.30;99.90;;;;;;4970566;28;20225;-78
2023/07/01 05:48:00;;;;;;;3.25;2.80;;;19.40;99.90;;;;;;4956126;28;20204;-78
2023/07/01 05:50:27;;;;;;;5.05;2.88;;;19.20;99.90;;;;;;4953739;28;20695;-78
2023/07/01 05:52:54;;;;;;;5.95;2.80;;;19.30;99.90;;;;;;4952700;28;20205;-79
2023/07/01 05:55:22;;;;;;;5.30;2.50;;;19.20;99.90;;;;;;4958753;28;20305;-77
2023/07/01 05:57:51;;;;;;;4.78;3.03;;;19.30;99.90;;;;;;4970658;28;20216;-78
2023/07/01 06:00:19;;;;;;;3.70;2.65;;;19.30;99.90;;;;;;4963740;28;20205;-78
2023/07/01 06:02:46;;;;;;;6.82;3.22;;;19.40;99.90;;;;;;4950522;28;20235;-78
2023/07/01 06:05:14;;;;;;;7.68;2.90;;;19.30;99.90;;;;;;4957968;28;20225;-78
2023/07/01 06:07:41;;;;;;;3.60;2.40;;;19.30;99.90;;;;;;4973923;28;20209;-78
2023/07/01 06:10:09;;;;;;;5.00;3.00;;;19.20;99.90;;;;;;4955195;28;20550;-77
2023/07/01 06:12:37;;;;;;;3.15;2.38;;;19.30;99.90;;;;;;4956446;28;20189;-77
2023/07/01 06:15:06;;;;;;;3.58;2.80;;;19.30;99.90;;;;;;4983062;28;20224;-77
2023/07/01 06:17:34;;;;;;;4.65;2.63;;;19.20;99.90;;;;;;4955283;28;20201;-78
2023/07/01 06:20:01;;;;;;;6.15;2.75;;;19.20;99.90;;;;;;4953999;28;20200;-77
2023/07/01 06:22:28;;;;;;;4.65;2.53;;;19.20;99.90;;;;;;4964215;28;20212;-78
2023/07/01 06:24:59;;;;;;;3.63;2.50;;;19.20;99.90;;;;;;4975627;28;20209;-77
2023/07/01 06:27:26;;;;;;;3.58;2.42;;;19.00;99.90;;;;;;4980115;28;20192;-77
2023/07/01 06:29:54;;;;;;;4.57;2.50;;;18.90;99.90;;;;;;4975753;28;20201;-77
2023/07/01 06:32:22;;;;;;;4.55;2.97;;;18.80;99.90;;;;;;4956403;28;20201;-78
2023/07/01 06:34:50;;;;;;;6.53;3.15;;;18.70;99.90;;;;;;4971782;28;20221;-78
2023/07/01 06:37:17;;;;;;;3.72;2.65;;;18.70;99.90;;;;;;4971918;28;20563;-78
2023/07/01 06:39:45;;;;;;;5.07;2.47;;;18.70;99.90;;;;;;4973538;28;20245;-78
2023/07/01 06:42:29;;;;;;;4.97;2.50;;;18.70;99.90;;;;;;4953982;28;20718;-79
2023/07/01 06:44:57;;;;;;;4.10;2.92;;;18.60;99.90;;;;;;4966347;28;20224;-79
2023/07/01 06:47:26;;;;;;;3.75;3.00;;;18.60;99.90;;;;;;4950310;28;20209;-79
2023/07/01 06:49:54;;;;;;;3.10;2.67;;;18.50;99.90;;;;;;4959770;28;20218;-79
2023/07/01 06:52:21;;;;;;;4.88;2.72;;;18.40;99.90;;;;;;4958845;28;20201;-79
2023/07/01 06:54:49;;;;;;;4.85;2.45;;;18.40;99.90;;;;;;4944700;28;20233;-79
2023/07/01 06:57:16;;;;;;;5.60;3.28;;;18.30;99.90;;;;;;4965722;28;20221;-79
2023/07/01 06:59:43;;;;;;;4.57;2.83;;;18.40;99.90;;;;;;4969389;28;20556;-78
2023/07/01 07:02:11;;;;;;;4.97;3.08;;;18.30;99.90;;;;;;4956926;28;20225;-78
2023/07/01 07:04:40;;;;;;;3.95;2.65;;;18.20;99.90;;;;;;4957334;28;20224;-78
2023/07/01 07:07:07;;;;;;;6.93;3.30;;;18.20;99.90;;;;;;4966632;28;20216;-78
2023/07/01 07:09:34;;;;;;;4.20;2.97;;;18.10;99.90;;;;;;4956887;28;20208;-78
2023/07/01 07:12:10;;;;;;;5.07;3.10;;;18.20;99.90;;;;;;4958143;28;20216;-78
2023/07/01 07:14:37;;;;;;;3.95;2.80;;;18.10;99.90;;;;;;4957835;28;20229;-78
2023/07/01 07:17:10;;;;;;;3.70;2.67;;;18.00;99.90;;;;;;4969526;28;20677;-78
2023/07/01 07:19:52;;;;;;;4.38;2.78;;;18.10;99.90;;;;;;4958008;28;20205;-77
2023/07/01 07:22:42;;;;;;;3.40;2.92;;;17.90;99.90;;;;;;4970008;28;20209;-77
2023/07/01 07:25:15;;;;;;;4.85;3.08;;;17.80;99.90;;;;;;4960373;28;20225;-78
2023/07/01 07:27:42;;;;;;;3.80;2.80;;;17.80;99.90;;;;;;4965640;28;20205;-77
2023/07/01 07:30:11;;;;;;;4.55;3.22;;;17.90;99.90;;;;;;4955826;28;20226;-78
2023/07/01 07:32:39;;;;;;;3.03;2.83;;;18.00;99.90;;;;;;4952533;28;20198;-78
2023/07/01 07:35:19;;;;;;;4.13;3.17;;;18.10;99.90;;;;;;4958463;28;20227;-79
2023/07/01 07:37:47;;;;;;;3.70;2.90;;;18.10;99.90;;;;;;4955045;28;20216;-79
2023/07/01 07:40:14;;;;;;;3.72;2.67;;;18.10;99.90;;;;;;4962419;28;20201;-79
2023/07/01 07:42:43;;;;;;;4.82;2.35;;;18.00;99.90;;;;;;4955375;28;20221;-79
2023/07/01 07:45:11;;;;;;;2.92;2.72;;;17.90;99.90;;;;;;4959666;28;20593;-79
2023/07/01 07:47:38;;;;;;;2.78;2.28;;;18.10;99.90;;;;;;4965862;28;20210;-79
2023/07/01 07:50:06;;;;;;;3.83;2.80;;;18.20;99.90;;;;;;4975540;28;20205;-78
2023/07/01 07:52:35;;;;;;;4.30;2.63;;;18.20;99.90;;;;;;4969964;28;20197;-78
2023/07/01 07:55:02;;;;;;;4.10;2.80;;;18.20;99.90;;;;;;4969904;28;20734;-79
2023/07/01 07:57:30;;;;;;;4.00;2.85;;;18.30;99.90;;;;;;4977115;28;20204;-78
2023/07/01 07:59:57;;;;;;;4.45;2.47;;;18.30;99.90;;;;;;4968795;28;20220;-78
2023/07/01 08:02:24;;;;;;;3.17;2.33;;;18.30;99.90;;;;;;4947992;28;20247;-78
2023/07/01 08:04:52;;;;;;;3.50;2.50;;;18.30;99.90;;;;;;4966117;28;20216;-78
2023/07/01 08:07:19;;;;;;;4.63;3.00;;;18.30;99.90;;;;;;4951976;28;20200;-79
2023/07/01 08:09:48;;;;;;;4.22;2.50;;;18.40;99.90;;;;;;4972992;28;20204;-78
2023/07/01 08:12:18;;;;;;;2.78;2.40;;;18.20;99.90;;;;;;4960290;28;20209;-78
2023/07/01 08:14:45;;;;;;;3.75;2.38;;;18.40;99.90;;;;;;4956144;28;20554;-78
2023/07/01 08:17:36;;;;;;;3.40;2.80;;;18.40;99.90;;;;;;4951726;28;20212;-78
2023/07/01 08:20:04;;;;;;;4.00;2.40;;;18.50;99.90;;;;;;4967103;28;20209;-78
2023/07/01 08:22:31;;;;;;;5.30;2.28;;;18.70;99.90;;;;;;4967090;28;20213;-78
2023/07/01 08:25:00;;;;;;;3.40;2.10;;;18.70;99.90;;;;;;4950769;28;20237;-79
2023/07/01 08:27:27;;;;;;;3.70;2.47;;;18.70;99.90;;;;;;4965475;28;20706;-78
2023/07/01 08:30:05;;;;;;;4.03;2.45;;;18.50;99.90;;;;;;4966781;28;20667;-78
2023/07/01 08:32:33;;;;;;;4.93;2.60;;;18.60;99.90;;;;;;4973999;28;20189;-78
2023/07/01 08:35:00;;;;;;;4.60;2.88;;;18.40;99.90;;;;;;4975174;28;20225;-78
2023/07/01 08:37:29;;;;;;;2.95;1.85;;;18.30;99.90;;;;;;4950878;28;20207;-78
2023/07/01 08:39:57;;;;;;;2.83;2.40;;;18.20;99.90;;;;;;4969746;28;20206;-78
2023/07/01 08:42:31;;;;;;;4.85;2.80;;;18.20;99.90;;;;;;4952534;28;20229;-78
2023/07/01 08:44:59;;;;;;;3.25;2.40;;;18.30;99.90;;;;;;4947119;28;20225;-78
2023/07/01 08:47:28;;;;;;;3.33;2.40;;;18.40;99.90;;;;;;4967813;28;20228;-78
2023/07/01 08:50:07;;;;;;;4.97;2.30;;;18.30;99.90;;;;;;4966968;28;20209;-79
2023/07/01 08:52:38;;;;;;;3.75;2.75;;;18.20;99.90;;;;;;4954745;28;20196;-78
2023/07/01 08:55:06;;;;;;;4.22;2.40;;;18.10;99.90;;;;;;4972459;28;20232;-78
2023/07/01 08:57:36;;;;;;;3.53;2.58;;;18.20;99.90;;;;;;4956243;28;20204;-79
2023/07/01 09:00:13;;;;;;;4.53;2.45;;;18.10;99.90;;;;;;4969952;28;20194;-79
2023/07/01 09:02:40;;;;;;;4.82;2.65;;;18.10;99.90;;;;;;4960490;28;20236;-79
2023/07/01 09:05:09;;;;;;;3.10;2.58;;;18.20;99.90;;;;;;4963095;28;20225;-79
2023/07/01 09:07:36;;;;;;;4.70;2.95;;;18.20;99.90;;;;;;4952252;28;20679;-79
2023/07/01 09:10:04;;;;;;;2.75;2.55;;;18.20;99.90;;;;;;4953732;28;20576;-78
2023/07/01 09:12:32;;;;;;;4.43;3.00;;;18.10;99.90;;;;;;4965741;28;20211;-79
2023/07/01 09:15:02;;;;;;;4.05;2.70;;;18.10;99.90;;;;;;4969981;28;20240;-79
2023/07/01 09:17:31;;;;;;;3.47;2.88;;;18.10;99.90;;;;;;4967478;28;20193;-80
2023/07/01 09:20:00;;;;;;;4.28;3.15;;;18.20;99.90;;;;;;4969148;28;20210;-79
2023/07/01 09:22:28;;;;;;;3.92;2.80;;;18.20;99.90;;;;;;4971380;28;20212;-80
2023/07/01 09:24:56;;;;;;;3.88;2.78;;;18.10;99.90;;;;;;5007699;23;20231;-79
2023/07/01 09:27:24;;;;;;;4.93;2.70;;;18.10;99.90;;;;;;5002998;28;20226;-80
2023/07/01 09:29:52;;;;;;;3.08;2.75;;;18.10;99.90;;;;;;5004212;28;20209;-79
2023/07/01 09:32:29;;;;;;;2.95;2.70;;;18.10;99.90;;;;;;5018942;28;20200;-79
2023/07/01 09:34:58;;;;;;;2.70;2.50;;;18.20;99.90;;;;;;5012104;28;20226;-79
2023/07/01 09:37:25;;;;;;;4.20;2.85;;;18.30;99.90;;;;;;5019897;28;20215;-80
2023/07/01 09:39:53;;;;;;;3.25;2.55;;;18.30;99.90;;;;;;5026246;28;20213;-79
2023/07/01 09:42:21;;;;;;;3.35;2.72;;;18.20;99.90;;;;;;5038143;28;20572;-79
2023/07/01 09:45:06;;;;;;;3.70;2.85;;;18.30;99.90;;;;;;5023532;28;20237;-79
2023/07/01 09:47:35;;;;;;;4.18;2.97;;;18.30;99.90;;;;;;5037941;28;20221;-79
2023/07/01 09:50:03;;;;;;;4.20;2.88;;;18.40;99.90;;;;;;5017952;28;20210;-78
2023/07/01 09:52:35;;;;;;;3.72;3.00;;;18.40;99.90;;;;;;5029136;28;20210;-78
2023/07/01 09:55:04;;;;;;;4.05;3.03;;;18.20;99.90;;;;;;5014376;28;20233;-78
2023/07/01 09:57:32;;;;;;;3.05;2.67;;;18.20;99.90;;;;;;5037602;28;20203;-79
2023/07/01 10:00:01;;;;;;;4.53;3.00;;;18.20;99.90;;;;;;5040049;28;20206;-78
2023/07/01 10:02:28;;;;;;;2.92;2.70;;;18.10;99.90;;;;;;5035086;28;20207;-78
2023/07/01 10:04:57;;;;;;;3.30;2.97;;;17.90;99.90;;;;;;5030598;28;20238;-80
2023/07/01 10:07:26;;;;;;;3.53;3.20;;;17.80;99.90;;;;;;5012237;28;20202;-80
2023/07/01 10:09:53;;;;;;;3.10;2.90;;;17.80;99.90;;;;;;5028704;28;20214;-78
2023/07/01 10:12:21;;;;;;;3.22;2.92;;;17.80;99.90;;;;;;5031058;28;20660;-78
2023/07/01 10:14:51;;;;;;;4.28;3.70;;;17.80;99.90;;;;;;5026866;28;20228;-78
2023/07/01 10:17:19;;;;;;;5.03;3.67;;;17.70;99.90;;;;;;5010328;28;20210;-80
2023/07/01 10:19:47;;;;;;;3.45;3.05;;;17.90;99.90;;;;;;5029148;28;20257;-79
2023/07/01 10:22:24;;;;;;;3.75;3.45;;;17.70;99.90;;;;;;5030908;28;20271;-80
2023/07/01 10:24:56;;;;;;;3.00;2.70;;;17.70;99.90;;;;;;5029732;28;20218;-78
2023/07/01 10:28:04;;;;;;;3.42;2.78;;;17.70;99.90;;;;;;5025528;28;20199;-78
2023/07/01 10:31:14;;;;;;;2.97;2.78;;;17.70;99.90;;;;;;5028427;28;20672;-78
2023/07/01 10:33:57;;;;;;;3.20;2.90;;;17.70;99.90;;;;;;4999111;28;20222;-80
2023/07/01 10:36:25;;;;;;;3.28;2.95;;;17.80;99.90;;;;;;5032298;28;20198;-81
2023/07/01 10:39:33;;;;;;;4.03;3.20;;;17.80;99.90;;;;;;5033511;28;20211;-79
2023/07/01 10:42:01;;;;;;;2.90;2.70;;;18.00;99.90;;;;;;5033518;28;20573;-80
2023/07/01 10:44:28;;;;;;;2.88;2.67;;;18.10;99.90;;;;;;5032236;28;20728;-80
2023/07/01 10:47:18;;;;;;;3.38;3.05;;;18.00;99.90;;;;;;5034375;28;20209;-80
2023/07/01 10:50:07;;;;;;;3.03;2.83;;;18.00;99.90;;;;;;5028207;28;20199;-79
2023/07/01 10:53:02;;;;;;;2.97;2.78;;;18.10;99.90;;;;;;5030978;28;20198;-79
2023/07/01 10:55:46;;;;;;;3.50;3.30;;;18.10;99.90;;;;;;5028162;28;20222;-78
2023/07/01 10:58:21;;;;;;;3.22;3.03;;;18.20;99.90;;;;;;5029147;28;20204;-79
2023/07/01 11:00:49;;;;;;;3.03;2.83;;;18.20;99.90;;;;;;5027705;28;20199;-79
2023/07/01 11:03:55;;;;;;;3.10;2.80;;;18.30;99.90;;;;;;5036410;28;20205;-81
2023/07/01 11:06:22;;;;;;;3.10;2.70;;;18.30;99.90;;;;;;5034566;28;20525;-80
2023/07/01 11:08:51;;;;;;;2.70;2.50;;;18.30;99.90;;;;;;5013548;28;20203;-80
2023/07/01 11:11:22;;;;;;;3.20;2.65;;;18.20;99.90;;;;;;5037641;28;20207;-80
2023/07/01 11:13:58;;;;;;;3.25;2.72;;;18.20;99.90;;;;;;5034883;28;20230;-80
2023/07/01 11:16:26;;;;;;;2.28;2.17;;;18.20;99.90;;;;;;5025026;28;20199;-81
2023/07/01 11:18:55;;;;;;;3.35;2.17;;;18.30;99.90;;;;;;5035461;28;20218;-81
2023/07/01 11:21:24;;;;;;;2.20;2.00;;;18.30;99.90;;;;;;5018358;28;20206;-81
2023/07/01 11:23:53;;;;;;;2.45;1.80;;;18.30;99.90;;;;;;5018248;28;20219;-81
2023/07/01 11:26:24;;;;;;;1.70;1.60;;;18.20;99.90;;;;;;5028364;28;20187;-80
2023/07/01 11:28:52;;;;;;;2.00;1.35;;;18.20;99.90;;;;;;5028150;28;20202;-81
2023/07/01 11:31:24;;;;;;;1.70;1.50;;;18.20;99.90;;;;;;5031651;28;20203;-81
2023/07/01 11:33:53;;;;;;;1.73;1.50;;;18.20;99.90;;;;;;5025686;28;20215;-80
2023/07/01 11:36:34;;;;;;;2.13;1.23;;;18.30;99.90;;;;;;5029451;28;20202;-81
2023/07/01 11:39:06;;;;;;;1.30;1.20;;;18.30;99.90;;;;;;5023509;28;20202;-81
2023/07/01 11:41:36;;;;;;;1.30;1.20;;;18.30;99.90;;;;;;5037746;28;20195;-80
2023/07/01 11:44:04;;;;;;;1.20;1.10;;;18.20;99.90;;;;;;5033848;28;20230;-80
2023/07/01 11:46:33;;;;;;;1.00;0.90;;;18.20;99.90;;;;;;5035651;28;20206;-80
2023/07/01 11:49:13;;;;;;;0.90;0.90;;;18.20;99.90;;;;;;5044016;28;20207;-81
2023/07/01 11:51:42;;;;;;;1.25;1.00;;;18.20;99.90;;;;;;5035666;28;20700;-80
2023/07/01 11:54:09;;;;;;;1.08;1.08;;;18.20;99.90;;;;;;5030169;28;20696;-80
2023/07/01 11:56:38;;;;;;;1.15;1.00;;;18.10;99.90;;;;;;5031251;28;20237;-80
2023/07/01 11:59:06;;;;;;;1.15;1.10;;;18.10;99.90;;;;;;5033427;28;20191;-80
2023/07/01 12:01:36;;;;;;;1.27;1.17;;;18.10;99.90;;;;;;5027374;28;20202;-79
2023/07/01 12:04:15;;;;;;;1.20;1.10;;;18.10;99.90;;;;;;5029649;28;20231;-80
2023/07/01 12:06:43;;;;;;;1.30;1.10;;;18.10;99.90;;;;;;5028878;28;20537;-80
2023/07/01 12:09:29;;;;;;;1.40;1.30;;;18.10;99.90;;;;;;5035166;28;20208;-80
2023/07/01 12:11:58;;;;;;;1.30;1.20;;;18.10;99.90;;;;;;5030096;28;20202;-80
2023/07/01 12:14:26;;;;;;;1.45;1.35;;;18.10;99.90;;;;;;5033220;28;20225;-80
2023/07/01 12:16:54;;;;;;;1.73;1.48;;;18.10;99.90;;;;;;5032343;28;20660;-80
2023/07/01 12:19:23;;;;;;;1.70;1.60;;;18.10;99.90;;;;;;5037829;28;20213;-80
2023/07/01 12:21:52;;;;;;;1.80;1.70;;;18.10;99.90;;;;;;5034264;28;20418;-80
2023/07/01 12:24:24;;;;;;;1.88;1.77;;;18.20;99.90;;;;;;5028777;28;20242;-80
2023/07/01 12:26:53;;;;;;;1.90;1.80;;;18.30;99.90;;;;;;5029787;28;20215;-79
2023/07/01 12:29:23;;;;;;;3.28;2.40;;;18.30;99.90;;;;;;5023885;28;20195;-80
2023/07/01 12:31:53;;;;;;;4.40;4.00;;;18.30;99.90;;;;;;5031341;28;20199;-80
2023/07/01 12:34:27;;;;;;;4.88;4.10;;;18.30;99.90;;;;;;5028269;28;20543;-80
2023/07/01 12:37:04;;;;;;;4.97;3.03;;;18.20;99.90;;;;;;5029172;28;20202;-80
2023/07/01 12:39:52;;;;;;;3.53;3.10;;;18.30;99.90;;;;;;5035499;28;20210;-80
2023/07/01 12:42:21;;;;;;;2.60;2.40;;;18.40;99.90;;;;;;5016098;28;20198;-80
2023/07/01 12:44:54;;;;;;;2.90;2.70;;;18.40;99.90;;;;;;5021952;28;20235;-80
2023/07/01 12:47:23;;;;;;;2.45;2.35;;;18.50;99.90;;;;;;5028198;28;20222;-80
2023/07/01 12:49:50;;;;;;;5.60;2.40;;;18.50;99.90;;;;;;5029687;28;20214;-80
2023/07/01 12:52:17;;;;;;;3.10;2.80;;;18.60;99.90;;;;;;5029109;28;20203;-80
2023/07/01 12:54:45;;;;;;;3.10;2.55;;;18.50;99.90;;;;;;5031861;28;20219;-80
2023/07/01 12:57:17;;;;;;;2.50;2.30;;;18.60;99.90;;;;;;5032220;28;20203;-80
2023/07/01 12:59:46;;;;;;;3.47;2.70;;;18.70;99.90;;;;;;5036704;28;20214;-80
2023/07/01 13:02:15;;;;;;;2.70;2.50;;;18.60;99.90;;;;;;5035709;28;20195;-80
2023/07/01 13:04:43;;;;;;;3.55;2.88;;;18.70;99.90;;;;;;5029906;28;20214;-81
2023/07/01 13:07:17;;;;;;;2.30;2.08;;;18.70;99.90;;;;;;5035145;28;20202;-81